createdAt,value
2022-10-17T00:00:12.922Z,7.88
2022-10-17T00:00:44.601Z,7.85
2022-10-17T00:01:16.096Z,9.10
2022-10-17T00:01:47.613Z,8.20
2022-10-17T00:02:19.108Z,8.00
2022-10-17T00:02:50.622Z,8.07
2022-10-17T00:03:22.341Z,8.18
2022-10-17T00:03:53.803Z,7.88
2022-10-17T00:04:25.374Z,8.55
2022-10-17T00:04:57.031Z,8.18
2022-10-17T00:05:28.814Z,7.65
2022-10-17T00:06:09.692Z,8.02
2022-10-17T00:06:41.273Z,8.65
2022-10-17T00:07:13.041Z,8.15
2022-10-17T00:07:44.526Z,8.60
2022-10-17T00:08:17.920Z,8.45
2022-10-17T00:08:49.556Z,6.80
2022-10-17T00:09:21.031Z,8.50
2022-10-17T00:09:52.497Z,8.85
2022-10-17T00:10:24.143Z,8.25
2022-10-17T00:11:01.216Z,9.07
2022-10-17T00:11:32.942Z,8.27
2022-10-17T00:12:04.660Z,8.75
2022-10-17T00:12:36.254Z,8.75
2022-10-17T00:13:08.792Z,8.73
2022-10-17T00:13:40.352Z,8.25
2022-10-17T00:14:11.874Z,8.00
2022-10-17T00:14:43.365Z,8.77
2022-10-17T00:15:17.155Z,8.57
2022-10-17T00:15:48.616Z,8.38
2022-10-17T00:16:28.740Z,8.45
2022-10-17T00:17:00.454Z,8.80
2022-10-17T00:17:32.000Z,8.75
2022-10-17T00:18:03.663Z,9.65
2022-10-17T00:18:35.199Z,8.18
2022-10-17T00:19:07.244Z,8.93
2022-10-17T00:19:38.736Z,8.77
2022-10-17T00:20:11.084Z,8.55
2022-10-17T00:20:42.565Z,7.72
2022-10-17T00:21:20.572Z,8.13
2022-10-17T00:21:52.050Z,7.68
2022-10-17T00:22:23.665Z,8.25
2022-10-17T00:22:57.341Z,7.93
2022-10-17T00:23:30.396Z,8.43
2022-10-17T00:24:01.954Z,8.43
2022-10-17T00:24:33.432Z,8.60
2022-10-17T00:25:05.404Z,8.77
2022-10-17T00:25:37.151Z,8.85
2022-10-17T00:26:08.830Z,7.80
2022-10-17T00:26:40.543Z,9.15
2022-10-17T00:27:12.028Z,10.23
2022-10-17T00:27:47.334Z,9.45
2022-10-17T00:28:19.430Z,9.07
2022-10-17T00:28:52.758Z,9.27
2022-10-17T00:29:24.354Z,9.73
2022-10-17T00:29:55.979Z,9.45
2022-10-17T00:30:27.718Z,9.27
2022-10-17T00:31:01.335Z,9.90
2022-10-17T00:31:35.726Z,9.38
2022-10-17T00:32:07.180Z,10.60
2022-10-17T00:32:38.780Z,9.80
2022-10-17T00:33:10.277Z,10.10
2022-10-17T00:33:43.178Z,10.25
2022-10-17T00:34:14.755Z,10.38
2022-10-17T00:34:46.759Z,9.70
2022-10-17T00:35:18.256Z,9.90
2022-10-17T00:35:49.732Z,9.98
2022-10-17T00:36:23.459Z,10.18
2022-10-17T00:36:55.000Z,10.00
2022-10-17T00:37:26.655Z,10.02
2022-10-17T00:37:58.143Z,9.45
2022-10-17T00:38:29.615Z,9.65
2022-10-17T00:39:01.059Z,10.52
2022-10-17T00:39:32.552Z,9.65
2022-10-17T00:40:05.625Z,10.23
2022-10-17T00:40:37.098Z,9.77
2022-10-17T00:41:10.471Z,10.98
2022-10-17T00:41:41.952Z,10.50
2022-10-17T00:42:13.559Z,9.10
2022-10-17T00:42:45.108Z,9.35
2022-10-17T00:43:17.935Z,9.63
2022-10-17T00:43:49.367Z,8.85
2022-10-17T00:44:29.532Z,9.40
2022-10-17T00:45:28.385Z,10.32
2022-10-17T00:45:59.908Z,8.95
2022-10-17T00:46:36.579Z,8.80
2022-10-17T00:47:11.027Z,8.73
2022-10-17T00:47:45.846Z,9.38
2022-10-17T00:48:21.217Z,8.57
2022-10-17T00:48:55.828Z,8.48
2022-10-17T00:49:29.233Z,8.60
2022-10-17T00:50:35.048Z,11.02
2022-10-17T00:51:07.659Z,9.60
2022-10-17T00:51:45.550Z,10.50
2022-10-17T00:52:21.972Z,8.70
2022-10-17T00:52:53.599Z,8.77
2022-10-17T00:53:27.571Z,9.90
2022-10-17T00:54:00.483Z,8.50
2022-10-17T00:54:37.688Z,9.23
2022-10-17T00:55:15.381Z,9.48
2022-10-17T00:55:51.432Z,8.73
2022-10-17T00:56:23.072Z,9.10
2022-10-17T00:56:54.740Z,9.70
2022-10-17T00:57:28.055Z,9.45
2022-10-17T00:58:01.911Z,9.38
2022-10-17T00:58:33.428Z,9.77
2022-10-17T00:59:39.311Z,10.07
2022-10-17T01:00:11.758Z,8.93
2022-10-17T01:00:43.817Z,9.05
2022-10-17T01:01:15.682Z,9.98
2022-10-17T01:02:17.966Z,10.65
2022-10-17T01:03:21.769Z,8.25
2022-10-17T01:03:53.313Z,9.52
2022-10-17T01:04:24.790Z,12.07
2022-10-17T01:04:59.448Z,10.68
2022-10-17T01:05:31.220Z,9.55
2022-10-17T01:06:02.762Z,10.05
2022-10-17T01:06:34.240Z,9.73
2022-10-17T01:07:05.744Z,9.10
2022-10-17T01:07:38.402Z,9.25
2022-10-17T01:08:11.251Z,10.13
2022-10-17T01:08:42.848Z,9.70
2022-10-17T01:09:14.344Z,9.32
2022-10-17T01:09:47.207Z,9.82
2022-10-17T01:10:19.266Z,9.43
2022-10-17T01:11:17.659Z,9.25
2022-10-17T01:11:57.083Z,9.52
2022-10-17T01:12:48.527Z,9.68
2022-10-17T01:13:31.215Z,9.80
2022-10-17T01:15:14.421Z,7.43
2022-10-17T01:15:55.586Z,10.20
2022-10-17T01:16:30.106Z,9.05
2022-10-17T01:17:14.321Z,10.25
2022-10-17T01:17:48.620Z,8.38
2022-10-17T01:18:31.635Z,9.35
2022-10-17T01:20:29.790Z,9.88
2022-10-17T01:21:22.871Z,9.85
2022-10-17T01:22:06.188Z,9.55
2022-10-17T01:22:41.634Z,9.70
2022-10-17T01:23:51.446Z,10.85
2022-10-17T01:24:37.119Z,10.10
2022-10-17T01:25:30.330Z,10.60
2022-10-17T01:26:17.505Z,9.82
2022-10-17T01:27:13.468Z,9.43
2022-10-17T01:27:53.948Z,9.85
2022-10-17T01:28:56.079Z,8.50
2022-10-17T01:29:51.731Z,10.27
2022-10-17T01:30:44.406Z,9.75
2022-10-17T01:31:16.930Z,9.95
2022-10-17T01:32:20.127Z,9.93
2022-10-17T01:32:59.127Z,10.40
2022-10-17T01:33:50.028Z,10.10
2022-10-17T01:34:33.040Z,9.77
2022-10-17T01:35:10.491Z,10.90
2022-10-17T01:36:09.541Z,9.63
2022-10-17T01:37:04.652Z,10.27
2022-10-17T01:37:56.789Z,11.48
2022-10-17T01:38:49.258Z,10.32
2022-10-17T01:39:41.654Z,10.00
2022-10-17T01:40:39.706Z,9.75
2022-10-17T01:41:25.982Z,10.05
2022-10-17T01:42:07.182Z,10.68
2022-10-17T01:42:51.499Z,10.95
2022-10-17T01:43:26.955Z,10.32
2022-10-17T01:44:09.958Z,10.35
2022-10-17T01:45:10.172Z,9.65
2022-10-17T01:45:53.672Z,11.55
2022-10-17T01:46:29.223Z,10.07
2022-10-17T01:47:05.815Z,10.23
2022-10-17T01:47:38.253Z,9.80
2022-10-17T01:48:16.816Z,9.88
2022-10-17T01:48:48.315Z,9.55
2022-10-17T01:49:23.842Z,10.27
2022-10-17T01:50:01.330Z,9.93
2022-10-17T01:50:40.320Z,10.32
2022-10-17T01:51:28.602Z,9.50
2022-10-17T01:52:09.536Z,9.77
2022-10-17T01:52:52.111Z,10.27
2022-10-17T01:53:47.581Z,9.63
2022-10-17T01:54:31.684Z,9.60
2022-10-17T01:55:10.583Z,10.25
2022-10-17T01:55:46.099Z,8.73
2022-10-17T01:56:18.507Z,10.60
2022-10-17T01:56:52.904Z,10.05
2022-10-17T01:57:38.511Z,10.38
2022-10-17T01:58:22.556Z,10.60
2022-10-17T01:58:59.028Z,9.98
2022-10-17T01:59:36.956Z,9.50
2022-10-17T02:00:11.948Z,9.45
2022-10-17T02:00:46.787Z,8.63
2022-10-17T02:01:18.798Z,9.05
2022-10-17T02:01:52.878Z,9.13
2022-10-17T02:02:25.618Z,10.20
2022-10-17T02:02:59.567Z,9.98
2022-10-17T02:03:31.606Z,10.60
2022-10-17T02:04:03.846Z,9.35
2022-10-17T02:04:36.356Z,9.63
2022-10-17T02:05:09.516Z,8.93
2022-10-17T02:05:42.642Z,10.20
2022-10-17T02:06:14.710Z,10.93
2022-10-17T02:06:46.319Z,10.52
2022-10-17T02:07:18.544Z,10.23
2022-10-17T02:07:50.069Z,9.50
2022-10-17T02:08:29.693Z,10.25
2022-10-17T02:09:02.477Z,11.05
2022-10-17T02:09:35.094Z,10.52
2022-10-17T02:10:10.894Z,10.32
2022-10-17T02:10:47.158Z,10.27
2022-10-17T02:11:21.562Z,11.40
2022-10-17T02:12:11.055Z,9.80
2022-10-17T02:12:50.080Z,10.10
2022-10-17T02:13:31.559Z,11.75
2022-10-17T02:14:18.039Z,9.25
2022-10-17T02:15:07.530Z,9.10
2022-10-17T02:16:04.063Z,9.77
2022-10-17T02:16:36.069Z,9.18
2022-10-17T02:17:19.714Z,10.15
2022-10-17T02:18:11.462Z,8.85
2022-10-17T02:18:59.728Z,10.10
2022-10-17T02:19:41.465Z,10.73
2022-10-17T02:20:25.081Z,9.10
2022-10-17T02:21:07.742Z,9.85
2022-10-17T02:22:06.860Z,8.93
2022-10-17T02:22:51.480Z,9.77
2022-10-17T02:23:29.103Z,10.85
2022-10-17T02:24:05.699Z,9.73
2022-10-17T02:25:08.685Z,10.38
2022-10-17T02:26:26.081Z,9.27
2022-10-17T02:27:12.579Z,9.27
2022-10-17T02:28:04.891Z,7.97
2022-10-17T02:28:44.949Z,9.23
2022-10-17T02:29:19.663Z,9.35
2022-10-17T02:30:00.558Z,9.65
2022-10-17T02:30:41.877Z,10.07
2022-10-17T02:31:36.625Z,9.88
2022-10-17T02:32:17.102Z,8.40
2022-10-17T02:32:59.959Z,9.52
2022-10-17T02:33:39.738Z,10.05
2022-10-17T02:34:21.826Z,9.40
2022-10-17T02:34:56.439Z,9.75
2022-10-17T02:35:31.186Z,10.48
2022-10-17T02:36:12.311Z,11.73
2022-10-17T02:36:49.127Z,9.75
2022-10-17T02:37:23.691Z,9.40
2022-10-17T02:37:55.396Z,9.02
2022-10-17T02:38:27.840Z,9.45
2022-10-17T02:39:01.909Z,9.52
2022-10-17T02:39:34.994Z,10.65
2022-10-17T02:40:07.384Z,9.68
2022-10-17T02:40:42.988Z,10.32
2022-10-17T02:41:17.091Z,9.82
2022-10-17T02:41:49.873Z,9.90
2022-10-17T02:42:21.874Z,11.02
2022-10-17T02:42:54.629Z,10.60
2022-10-17T02:43:26.261Z,9.60
2022-10-17T02:44:00.206Z,10.85
2022-10-17T02:44:34.220Z,10.10
2022-10-17T02:45:06.925Z,10.73
2022-10-17T02:45:41.769Z,9.68
2022-10-17T02:46:22.767Z,10.20
2022-10-17T02:47:02.179Z,10.95
2022-10-17T02:47:43.964Z,10.23
2022-10-17T02:48:19.070Z,9.77
2022-10-17T02:49:14.079Z,10.13
2022-10-17T02:49:51.484Z,9.63
2022-10-17T02:50:30.397Z,10.50
2022-10-17T02:51:24.497Z,9.65
2022-10-17T02:51:57.414Z,10.07
2022-10-17T02:52:31.851Z,9.48
2022-10-17T02:53:14.781Z,9.95
2022-10-17T02:53:53.766Z,10.90
2022-10-17T02:54:57.503Z,10.00
2022-10-17T02:55:32.490Z,11.25
2022-10-17T02:56:10.868Z,10.55
2022-10-17T02:56:54.338Z,10.20
2022-10-17T02:57:56.305Z,10.90
2022-10-17T02:58:31.494Z,9.38
2022-10-17T02:59:03.674Z,10.27
2022-10-17T02:59:36.346Z,10.32
2022-10-17T03:00:11.370Z,10.27
2022-10-17T03:00:43.735Z,10.82
2022-10-17T03:01:18.894Z,11.60
2022-10-17T03:01:51.591Z,10.70
2022-10-17T03:02:23.170Z,11.13
2022-10-17T03:02:55.209Z,11.13
2022-10-17T03:03:32.455Z,10.25
2022-10-17T03:04:12.330Z,10.18
2022-10-17T03:04:45.381Z,10.68
2022-10-17T03:05:22.782Z,10.80
2022-10-17T03:05:54.919Z,10.27
2022-10-17T03:06:29.078Z,11.23
2022-10-17T03:07:00.620Z,10.80
2022-10-17T03:07:32.289Z,10.07
2022-10-17T03:08:05.424Z,9.70
2022-10-17T03:09:14.504Z,10.30
2022-10-17T03:09:46.266Z,11.48
2022-10-17T03:10:18.376Z,10.90
2022-10-17T03:10:50.443Z,10.63
2022-10-17T03:11:22.799Z,10.30
2022-10-17T03:11:55.576Z,10.18
2022-10-17T03:12:27.466Z,10.88
2022-10-17T03:12:59.501Z,10.43
2022-10-17T03:13:32.285Z,10.55
2022-10-17T03:14:05.405Z,10.40
2022-10-17T03:14:36.930Z,10.48
2022-10-17T03:15:09.376Z,10.82
2022-10-17T03:15:41.719Z,11.65
2022-10-17T03:16:13.720Z,10.45
2022-10-17T03:16:45.440Z,10.27
2022-10-17T03:17:16.939Z,11.15
2022-10-17T03:17:48.399Z,11.75
2022-10-17T03:18:19.910Z,10.05
2022-10-17T03:18:53.540Z,10.55
2022-10-17T03:19:25.094Z,10.40
2022-10-17T03:19:57.904Z,10.52
2022-10-17T03:20:29.467Z,12.00
2022-10-17T03:21:00.933Z,13.10
2022-10-17T03:21:32.993Z,10.80
2022-10-17T03:22:04.672Z,10.95
2022-10-17T03:22:37.910Z,9.82
2022-10-17T03:23:10.551Z,10.63
2022-10-17T03:23:42.030Z,9.90
2022-10-17T03:24:13.715Z,10.05
2022-10-17T03:24:45.560Z,11.88
2022-10-17T03:25:17.073Z,10.93
2022-10-17T03:25:48.542Z,9.10
2022-10-17T03:26:21.006Z,10.18
2022-10-17T03:26:52.587Z,9.90
2022-10-17T03:27:24.672Z,10.32
2022-10-17T03:27:59.904Z,10.43
2022-10-17T03:28:31.992Z,9.48
2022-10-17T03:29:06.612Z,11.02
2022-10-17T03:29:39.635Z,10.35
2022-10-17T03:30:13.523Z,10.30
2022-10-17T03:30:45.167Z,11.13
2022-10-17T03:31:17.769Z,11.35
2022-10-17T03:31:52.527Z,10.50
2022-10-17T03:32:24.386Z,10.23
2022-10-17T03:32:57.867Z,9.57
2022-10-17T03:33:29.386Z,9.13
2022-10-17T03:34:02.356Z,11.77
2022-10-17T03:34:34.451Z,11.10
2022-10-17T03:35:07.663Z,9.65
2022-10-17T03:35:40.565Z,11.05
2022-10-17T03:36:15.302Z,9.60
2022-10-17T03:36:47.059Z,10.10
2022-10-17T03:37:18.681Z,10.18
2022-10-17T03:37:50.241Z,10.52
2022-10-17T03:38:23.671Z,10.30
2022-10-17T03:38:55.423Z,10.52
2022-10-17T03:39:27.744Z,10.07
2022-10-17T03:39:59.277Z,10.23
2022-10-17T03:40:30.736Z,9.35
2022-10-17T03:41:03.322Z,10.10
2022-10-17T03:41:35.450Z,10.07
2022-10-17T03:42:06.939Z,10.10
2022-10-17T03:42:38.730Z,9.20
2022-10-17T03:43:13.810Z,9.05
2022-10-17T03:43:46.154Z,9.70
2022-10-17T03:44:17.672Z,9.77
2022-10-17T03:44:49.167Z,8.75
2022-10-17T03:45:21.665Z,9.85
2022-10-17T03:45:53.214Z,11.23
2022-10-17T03:46:24.710Z,9.48
2022-10-17T03:46:56.755Z,8.90
2022-10-17T03:47:29.424Z,8.73
2022-10-17T03:48:01.328Z,10.05
2022-10-17T03:48:33.507Z,10.75
2022-10-17T03:49:05.100Z,9.57
2022-10-17T03:49:37.303Z,10.15
2022-10-17T03:50:10.033Z,9.43
2022-10-17T03:50:43.336Z,10.30
2022-10-17T03:51:15.412Z,9.25
2022-10-17T03:51:51.639Z,10.45
2022-10-17T03:52:24.092Z,10.13
2022-10-17T03:52:55.636Z,10.40
2022-10-17T03:53:27.615Z,9.73
2022-10-17T03:53:59.129Z,10.25
2022-10-17T03:54:31.472Z,10.18
2022-10-17T03:55:03.396Z,9.15
2022-10-17T03:55:35.393Z,9.68
2022-10-17T03:56:11.983Z,9.43
2022-10-17T03:56:43.935Z,10.00
2022-10-17T03:57:19.470Z,9.20
2022-10-17T03:57:51.475Z,10.43
2022-10-17T03:58:24.977Z,9.45
2022-10-17T03:58:58.487Z,8.73
2022-10-17T03:59:30.047Z,8.48
2022-10-17T04:00:10.287Z,9.45
2022-10-17T04:00:54.661Z,9.60
2022-10-17T04:01:26.450Z,9.57
2022-10-17T04:01:58.150Z,9.02
2022-10-17T04:02:30.062Z,8.52
2022-10-17T04:03:02.303Z,9.48
2022-10-17T04:03:33.963Z,9.65
2022-10-17T04:04:05.743Z,11.35
2022-10-17T04:04:39.519Z,9.57
2022-10-17T04:05:11.839Z,9.85
2022-10-17T04:05:43.315Z,10.65
2022-10-17T04:06:15.550Z,9.52
2022-10-17T04:06:48.817Z,9.68
2022-10-17T04:07:20.385Z,9.00
2022-10-17T04:07:53.248Z,8.85
2022-10-17T04:08:31.578Z,9.27
2022-10-17T04:09:11.185Z,8.90
2022-10-17T04:09:59.588Z,9.45
2022-10-17T04:10:31.898Z,9.77
2022-10-17T04:11:05.827Z,8.70
2022-10-17T04:11:37.551Z,9.95
2022-10-17T04:12:09.251Z,10.10
2022-10-17T04:12:41.824Z,9.52
2022-10-17T04:13:13.381Z,8.85
2022-10-17T04:13:45.101Z,9.02
2022-10-17T04:14:16.631Z,10.23
2022-10-17T04:14:48.211Z,9.80
2022-10-17T04:15:21.335Z,10.00
2022-10-17T04:16:05.322Z,10.35
2022-10-17T04:16:36.902Z,9.02
2022-10-17T04:17:14.296Z,9.50
2022-10-17T04:17:48.432Z,10.90
2022-10-17T04:18:20.133Z,9.75
2022-10-17T04:18:56.371Z,11.30
2022-10-17T04:19:29.825Z,8.40
2022-10-17T04:20:01.531Z,10.35
2022-10-17T04:20:35.019Z,9.70
2022-10-17T04:21:08.072Z,11.05
2022-10-17T04:21:39.698Z,9.27
2022-10-17T04:22:12.374Z,9.93
2022-10-17T04:22:44.600Z,9.45
2022-10-17T04:23:17.527Z,9.52
2022-10-17T04:23:49.027Z,9.30
2022-10-17T04:24:33.950Z,8.65
2022-10-17T04:25:09.960Z,9.55
2022-10-17T04:25:44.857Z,10.95
2022-10-17T04:26:16.405Z,11.95
2022-10-17T04:26:51.025Z,10.05
2022-10-17T04:27:23.357Z,9.85
2022-10-17T04:27:54.838Z,9.40
2022-10-17T04:28:27.996Z,9.23
2022-10-17T04:28:59.626Z,9.40
2022-10-17T04:29:31.147Z,10.38
2022-10-17T04:30:11.429Z,10.13
2022-10-17T04:30:45.468Z,10.05
2022-10-17T04:31:19.419Z,9.43
2022-10-17T04:32:12.668Z,9.50
2022-10-17T04:32:53.931Z,10.35
2022-10-17T04:33:26.866Z,9.93
2022-10-17T04:33:59.006Z,9.50
2022-10-17T04:34:30.528Z,9.90
2022-10-17T04:35:02.145Z,9.40
2022-10-17T04:35:33.715Z,9.88
2022-10-17T04:36:12.053Z,10.25
2022-10-17T04:36:43.654Z,11.35
2022-10-17T04:37:15.205Z,9.75
2022-10-17T04:37:48.323Z,9.77
2022-10-17T04:38:26.246Z,9.55
2022-10-17T04:39:05.059Z,9.38
2022-10-17T04:39:37.303Z,10.93
2022-10-17T04:40:09.436Z,9.45
2022-10-17T04:40:41.251Z,9.18
2022-10-17T04:41:15.818Z,9.77
2022-10-17T04:41:47.292Z,9.65
2022-10-17T04:42:19.300Z,10.98
2022-10-17T04:42:52.518Z,10.38
2022-10-17T04:43:26.396Z,10.85
2022-10-17T04:43:57.863Z,10.57
2022-10-17T04:44:31.428Z,10.98
2022-10-17T04:45:04.719Z,8.70
2022-10-17T04:45:36.203Z,10.13
2022-10-17T04:46:12.589Z,9.38
2022-10-17T04:46:44.119Z,10.35
2022-10-17T04:47:15.614Z,9.48
2022-10-17T04:47:47.772Z,11.75
2022-10-17T04:48:19.624Z,9.13
2022-10-17T04:48:51.158Z,10.07
2022-10-17T04:49:22.801Z,9.27
2022-10-17T04:49:57.832Z,9.60
2022-10-17T04:50:29.392Z,9.77
2022-10-17T04:51:21.974Z,9.70
2022-10-17T04:52:28.688Z,10.30
2022-10-17T04:53:00.367Z,10.07
2022-10-17T04:53:36.407Z,9.93
2022-10-17T04:54:08.639Z,9.43
2022-10-17T04:54:41.638Z,9.85
2022-10-17T04:55:14.973Z,8.93
2022-10-17T04:55:46.835Z,9.57
2022-10-17T04:56:21.316Z,10.13
2022-10-17T04:56:52.798Z,10.15
2022-10-17T04:57:24.943Z,11.35
2022-10-17T04:58:03.764Z,9.93
2022-10-17T04:58:35.367Z,9.95
2022-10-17T04:59:06.987Z,10.05
2022-10-17T04:59:39.050Z,10.13
2022-10-17T05:00:21.271Z,9.98
2022-10-17T05:01:11.220Z,10.50
2022-10-17T05:01:44.451Z,10.23
2022-10-17T05:02:16.208Z,10.95
2022-10-17T05:02:47.711Z,10.25
2022-10-17T05:03:19.825Z,10.27
2022-10-17T05:03:51.965Z,9.23
2022-10-17T05:04:24.843Z,10.05
2022-10-17T05:04:57.201Z,10.18
2022-10-17T05:05:29.058Z,9.75
2022-10-17T05:06:12.366Z,9.90
2022-10-17T05:06:44.585Z,9.80
2022-10-17T05:07:34.770Z,9.15
2022-10-17T05:08:09.737Z,8.98
2022-10-17T05:08:41.679Z,11.07
2022-10-17T05:09:13.162Z,10.55
2022-10-17T05:09:44.659Z,10.32
2022-10-17T05:10:16.668Z,10.07
2022-10-17T05:10:50.560Z,10.50
2022-10-17T05:11:25.663Z,9.50
2022-10-17T05:11:57.695Z,9.07
2022-10-17T05:12:30.217Z,9.57
2022-10-17T05:13:01.962Z,10.38
2022-10-17T05:13:36.319Z,9.38
2022-10-17T05:14:07.796Z,10.48
2022-10-17T05:14:39.272Z,10.25
2022-10-17T05:15:11.104Z,9.68
2022-10-17T05:15:42.576Z,14.43
2022-10-17T05:16:14.085Z,9.52
2022-10-17T05:16:46.333Z,10.23
2022-10-17T05:17:18.087Z,10.13
2022-10-17T05:17:49.541Z,11.02
2022-10-17T05:18:21.470Z,10.75
2022-10-17T05:18:57.878Z,10.35
2022-10-17T05:19:31.882Z,9.77
2022-10-17T05:20:04.419Z,10.25
2022-10-17T05:20:38.141Z,9.93
2022-10-17T05:21:11.134Z,9.88
2022-10-17T05:21:43.357Z,11.27
2022-10-17T05:22:14.803Z,10.65
2022-10-17T05:22:46.921Z,9.52
2022-10-17T05:23:18.430Z,9.57
2022-10-17T05:23:50.214Z,10.10
2022-10-17T05:24:21.992Z,9.65
2022-10-17T05:24:53.596Z,9.48
2022-10-17T05:25:25.153Z,10.85
2022-10-17T05:25:57.000Z,10.48
2022-10-17T05:26:29.102Z,9.50
2022-10-17T05:27:01.005Z,10.13
2022-10-17T05:27:33.204Z,10.15
2022-10-17T05:28:04.711Z,9.65
2022-10-17T05:28:36.306Z,10.30
2022-10-17T05:29:08.705Z,9.25
2022-10-17T05:29:45.646Z,10.00
2022-10-17T05:30:25.648Z,9.63
2022-10-17T05:31:03.781Z,10.13
2022-10-17T05:31:35.407Z,9.38
2022-10-17T05:32:07.098Z,9.13
2022-10-17T05:32:39.696Z,10.38
2022-10-17T05:33:12.366Z,9.57
2022-10-17T05:33:44.709Z,10.40
2022-10-17T05:34:16.243Z,10.10
2022-10-17T05:34:47.730Z,8.50
2022-10-17T05:35:19.210Z,9.65
2022-10-17T05:35:51.304Z,9.40
2022-10-17T05:36:22.842Z,9.52
2022-10-17T05:36:54.399Z,9.98
2022-10-17T05:37:29.472Z,10.02
2022-10-17T05:38:01.646Z,9.70
2022-10-17T05:38:35.444Z,9.10
2022-10-17T05:39:08.695Z,10.57
2022-10-17T05:39:40.381Z,9.88
2022-10-17T05:40:12.397Z,9.77
2022-10-17T05:40:45.628Z,9.63
2022-10-17T05:41:18.017Z,9.52
2022-10-17T05:41:51.392Z,9.45
2022-10-17T05:42:23.581Z,9.38
2022-10-17T05:42:55.196Z,9.23
2022-10-17T05:43:28.212Z,8.82
2022-10-17T05:44:03.079Z,9.43
2022-10-17T05:44:46.566Z,9.10
2022-10-17T05:45:19.682Z,9.05
2022-10-17T05:45:51.382Z,9.70
2022-10-17T05:46:25.302Z,8.35
2022-10-17T05:46:56.922Z,9.77
2022-10-17T05:47:28.748Z,9.10
2022-10-17T05:48:00.595Z,9.50
2022-10-17T05:48:32.801Z,9.00
2022-10-17T05:49:14.754Z,9.27
2022-10-17T05:49:56.289Z,9.18
2022-10-17T05:50:35.484Z,8.90
2022-10-17T05:51:12.206Z,9.07
2022-10-17T05:51:45.257Z,9.85
2022-10-17T05:52:16.893Z,9.65
2022-10-17T05:53:02.463Z,9.15
2022-10-17T05:53:37.111Z,8.40
2022-10-17T05:54:11.129Z,9.45
2022-10-17T05:54:42.718Z,8.55
2022-10-17T05:55:14.332Z,9.93
2022-10-17T05:55:45.842Z,9.00
2022-10-17T05:56:17.610Z,9.18
2022-10-17T05:56:55.605Z,9.88
2022-10-17T05:57:30.732Z,9.02
2022-10-17T05:58:02.965Z,9.02
2022-10-17T05:58:50.599Z,10.40
2022-10-17T05:59:36.592Z,8.55
2022-10-17T06:00:13.252Z,8.82
2022-10-17T06:00:57.137Z,9.23
2022-10-17T06:01:28.654Z,9.38
2022-10-17T06:02:00.429Z,8.82
2022-10-17T06:02:32.829Z,9.18
2022-10-17T06:03:04.852Z,8.60
2022-10-17T06:03:36.383Z,8.15
2022-10-17T06:04:10.233Z,8.73
2022-10-17T06:04:45.871Z,8.52
2022-10-17T06:05:19.243Z,9.30
2022-10-17T06:05:52.440Z,8.93
2022-10-17T06:06:24.087Z,9.07
2022-10-17T06:06:56.484Z,8.18
2022-10-17T06:07:28.269Z,8.93
2022-10-17T06:08:01.926Z,8.60
2022-10-17T06:08:36.282Z,8.07
2022-10-17T06:09:08.458Z,8.27
2022-10-17T06:09:43.384Z,8.68
2022-10-17T06:10:16.567Z,7.63
2022-10-17T06:10:49.430Z,8.80
2022-10-17T06:11:21.432Z,9.35
2022-10-17T06:11:52.967Z,8.63
2022-10-17T06:12:25.310Z,8.70
2022-10-17T06:12:57.567Z,8.25
2022-10-17T06:13:30.628Z,9.10
2022-10-17T06:14:04.675Z,8.77
2022-10-17T06:14:36.169Z,9.02
2022-10-17T06:15:09.365Z,9.05
2022-10-17T06:15:42.257Z,9.07
2022-10-17T06:16:14.759Z,8.50
2022-10-17T06:16:46.343Z,8.98
2022-10-17T06:17:20.871Z,9.60
2022-10-17T06:17:53.476Z,9.27
2022-10-17T06:18:26.382Z,9.32
2022-10-17T06:18:58.419Z,8.65
2022-10-17T06:19:29.971Z,8.82
2022-10-17T06:20:01.854Z,8.60
2022-10-17T06:20:33.379Z,8.52
2022-10-17T06:21:07.400Z,8.95
2022-10-17T06:21:39.577Z,9.18
2022-10-17T06:22:18.514Z,9.48
2022-10-17T06:22:51.169Z,9.38
2022-10-17T06:23:31.585Z,8.27
2022-10-17T06:24:08.970Z,8.95
2022-10-17T06:24:42.638Z,9.30
2022-10-17T06:25:14.892Z,8.75
2022-10-17T06:25:46.565Z,9.27
2022-10-17T06:26:18.957Z,9.02
2022-10-17T06:26:51.146Z,8.40
2022-10-17T06:27:23.849Z,8.73
2022-10-17T06:27:55.461Z,10.23
2022-10-17T06:28:27.311Z,9.65
2022-10-17T06:28:59.021Z,9.55
2022-10-17T06:29:34.231Z,8.68
2022-10-17T06:30:06.276Z,9.15
2022-10-17T06:30:39.339Z,9.20
2022-10-17T06:31:13.376Z,9.40
2022-10-17T06:31:45.565Z,9.45
2022-10-17T06:32:17.162Z,9.65
2022-10-17T06:32:54.731Z,9.82
2022-10-17T06:33:26.220Z,9.88
2022-10-17T06:33:57.990Z,9.02
2022-10-17T06:34:29.472Z,9.32
2022-10-17T06:35:00.999Z,9.20
2022-10-17T06:35:33.118Z,9.88
2022-10-17T06:36:07.700Z,9.98
2022-10-17T06:36:39.924Z,9.30
2022-10-17T06:37:12.202Z,9.38
2022-10-17T06:37:45.278Z,9.85
2022-10-17T06:38:16.919Z,8.50
2022-10-17T06:38:48.458Z,10.50
2022-10-17T06:39:36.539Z,8.48
2022-10-17T06:40:12.967Z,8.73
2022-10-17T06:40:44.790Z,9.32
2022-10-17T06:41:19.219Z,9.13
2022-10-17T06:41:50.746Z,8.50
2022-10-17T06:42:24.191Z,8.80
2022-10-17T06:43:12.644Z,9.85
2022-10-17T06:44:08.359Z,8.48
2022-10-17T06:45:02.506Z,7.93
2022-10-17T06:45:58.136Z,8.88
2022-10-17T06:47:16.531Z,10.85
2022-10-17T06:47:50.811Z,8.30
2022-10-17T06:48:33.192Z,11.07
2022-10-17T06:49:19.213Z,9.57
2022-10-17T06:49:56.435Z,8.50
2022-10-17T06:50:34.863Z,8.95
2022-10-17T06:51:18.552Z,9.05
2022-10-17T06:51:54.438Z,8.82
2022-10-17T06:52:34.156Z,9.45
2022-10-17T06:53:39.671Z,8.55
2022-10-17T06:54:37.473Z,7.35
2022-10-17T06:55:25.200Z,8.43
2022-10-17T06:56:16.824Z,9.15
2022-10-17T06:57:06.690Z,8.80
2022-10-17T06:57:56.846Z,9.35
2022-10-17T06:58:48.104Z,9.02
2022-10-17T06:59:28.762Z,9.27
2022-10-17T07:00:07.742Z,8.75
2022-10-17T07:00:45.827Z,9.40
2022-10-17T07:01:17.722Z,10.80
2022-10-17T07:01:56.206Z,9.75
2022-10-17T07:02:29.996Z,9.75
2022-10-17T07:03:04.361Z,9.48
2022-10-17T07:03:36.428Z,9.80
2022-10-17T07:04:07.881Z,10.40
2022-10-17T07:04:39.735Z,10.65
2022-10-17T07:05:11.716Z,9.85
2022-10-17T07:05:43.191Z,10.35
2022-10-17T07:06:14.667Z,10.00
2022-10-17T07:06:47.535Z,9.85
2022-10-17T07:07:25.488Z,9.40
2022-10-17T07:07:57.761Z,9.25
2022-10-17T07:08:29.788Z,9.00
2022-10-17T07:09:02.702Z,9.57
2022-10-17T07:09:34.347Z,8.68
2022-10-17T07:10:08.650Z,8.82
2022-10-17T07:10:41.398Z,8.48
2022-10-17T07:11:15.715Z,9.27
2022-10-17T07:11:47.293Z,8.82
2022-10-17T07:12:23.325Z,8.65
2022-10-17T07:12:55.071Z,8.63
2022-10-17T07:13:26.566Z,8.45
2022-10-17T07:13:58.350Z,7.57
2022-10-17T07:14:32.203Z,8.10
2022-10-17T07:15:05.021Z,7.55
2022-10-17T07:15:37.284Z,8.18
2022-10-17T07:16:09.076Z,8.00
2022-10-17T07:16:42.371Z,7.70
2022-10-17T07:17:20.587Z,7.80
2022-10-17T07:17:52.198Z,8.07
2022-10-17T07:18:24.510Z,8.25
2022-10-17T07:18:56.415Z,7.60
2022-10-17T07:19:28.034Z,7.25
2022-10-17T07:19:59.748Z,7.35
2022-10-17T07:20:32.207Z,7.13
2022-10-17T07:21:04.077Z,8.02
2022-10-17T07:21:38.930Z,7.20
2022-10-17T07:22:12.463Z,7.20
2022-10-17T07:22:47.153Z,7.72
2022-10-17T07:23:18.641Z,7.07
2022-10-17T07:23:50.292Z,7.97
2022-10-17T07:24:21.919Z,7.00
2022-10-17T07:24:59.111Z,7.10
2022-10-17T07:25:37.727Z,7.40
2022-10-17T07:26:15.350Z,7.20
2022-10-17T07:26:47.485Z,6.10
2022-10-17T07:27:19.438Z,6.68
2022-10-17T07:27:53.123Z,6.57
2022-10-17T07:28:25.931Z,6.70
2022-10-17T07:28:57.896Z,7.00
2022-10-17T07:29:39.712Z,6.28
2022-10-17T07:30:15.416Z,7.22
2022-10-17T07:31:03.690Z,7.30
2022-10-17T07:31:35.599Z,6.90
2022-10-17T07:32:08.585Z,7.07
2022-10-17T07:32:40.176Z,5.95
2022-10-17T07:33:13.543Z,6.63
2022-10-17T07:34:19.281Z,7.30
2022-10-17T07:34:51.060Z,6.75
2022-10-17T07:35:23.010Z,6.70
2022-10-17T07:35:54.920Z,7.45
2022-10-17T07:36:26.428Z,6.18
2022-10-17T07:36:58.811Z,6.55
2022-10-17T07:37:30.561Z,7.00
2022-10-17T07:38:03.582Z,6.60
2022-10-17T07:38:36.730Z,6.35
2022-10-17T07:39:08.379Z,6.57
2022-10-17T07:39:41.582Z,6.82
2022-10-17T07:40:13.245Z,6.88
2022-10-17T07:40:44.923Z,6.85
2022-10-17T07:41:19.303Z,6.18
2022-10-17T07:41:53.670Z,6.18
2022-10-17T07:42:29.155Z,6.30
2022-10-17T07:43:00.873Z,6.63
2022-10-17T07:43:33.586Z,6.70
2022-10-17T07:44:06.112Z,6.07
2022-10-17T07:44:42.196Z,5.30
2022-10-17T07:45:15.665Z,6.07
2022-10-17T07:45:47.636Z,6.03
2022-10-17T07:46:19.142Z,6.75
2022-10-17T07:46:50.754Z,6.32
2022-10-17T07:47:23.299Z,5.68
2022-10-17T07:47:57.345Z,6.10
2022-10-17T07:48:29.068Z,5.97
2022-10-17T07:49:00.965Z,5.75
2022-10-17T07:49:33.291Z,6.22
2022-10-17T07:50:05.722Z,6.95
2022-10-17T07:50:37.191Z,6.78
2022-10-17T07:51:09.591Z,6.25
2022-10-17T07:51:41.094Z,6.15